Tiempo atmosférico en la estación meteorológica de Teror, Las Palmas (683 m.)



Fecha
DESCASC
Temp. máxima en grados centígrados (hora)
DESCASC
Temp. mínima en grados centígrados (hora)
DESCASC
Temp. media en grados centígrados
DESCASC
Racha de viento máxima en m/sg (hora)
DESCASC
Velocidad máxima media en intervalos de 10 minutos(hora)
DESCASC
Precipitaciones diarias en mm
DESCASC
Precipitaciones de 00:00 a 06:00 en mm
DESCASC
Precipitaciones de 06:00 a 12:00 en mm
DESCASC
Precipitaciones de 12:00 a 18:00 en mm
DESCASC
Precipitaciones de 18:00 a 24:00 en mm
DESCASC
20-09-2018 24.9 (15:20) 14.4 (23:40) 19.6 5.56 (16:30) 2.78 (11:30) 0 0 0 0 0
19-09-2018 28.4 (12:20) 15.3 (08:00) 21.8 9.44 (12:30) 3.89 (12:40) 0 0 0 0 0
18-09-2018 25.3 (12:30) 16.7 (01:50) 21 6.67 (12:10) 3.61 (12:20) 0 0 0 0 0
17-09-2018 23.7 (16:20) 15.7 (07:30) 19.7 8.06 (00:40) 3.89 (00:40) 0 0 0 0 0
16-09-2018 22.8 (13:30) 16 (00:00) 19.4 6.94 (16:00) 3.61 (13:50) 0 0 0 0 0
15-09-2018 25.4 (13:10) 16.1 (00:00) 20.8 10.28 (16:10) 4.72 (19:30) 0 0 0 0 0
14-09-2018 29 (13:30) 16.9 (00:00) 22.9 5.83 (11:50) 3.33 (11:50) 0 0 0 0 0
13-09-2018 30.6 (14:10) 18.1 (00:00) 24.4 8.33 (11:10) 4.44 (11:10) 0 0 0 0 0
12-09-2018 30.3 (15:10) 14.4 (00:00) 22.3 11.94 (14:00) 6.11 (14:00) 0 0 0 0 0
11-09-2018 23.7 (16:20) 14.4 (00:00) 19.1 6.94 (16:00) 3.61 (15:30) 0.6 0.6 0 0 0
10-09-2018 22.3 (14:50) 14.3 (00:00) 18.3 8.06 (17:40) 4.17 (17:30) 0.2 0.2 0 0 0
09-09-2018 21.9 (15:50) 14.2 (00:00) 18 6.39 (13:50) 3.89 (13:10) 0 0 0 0 0
08-09-2018 22.1 (13:40) 12.5 (00:00) 17.3 6.94 (15:10) 4.17 (15:10) 0 0 0 0 0
07-09-2018 22.8 (11:00) 13.9 (00:00) 18.3 5.28 (12:20) 3.06 (10:50) 0 0 0 0 0
06-09-2018 22.5 (12:50) 16.2 (00:00) 19.4 4.72 (13:50) 2.78 (13:20) 0 0 0 0 0
05-09-2018 24 (13:50) 15.2 (00:00) 19.6 5.56 (12:20) 3.33 (14:00) 0 0 0 0 0
04-09-2018 23.5 (12:50) 15.3 (00:00) 19.4 6.39 (14:00) 3.06 (14:00) 0 0 0 0 0
03-09-2018 24 (13:50) 16.2 (00:00) 20.1 6.39 (14:30) 3.33 (15:00) 0 0 0 0 0
02-09-2018 23.7 (16:20) 16 (00:00) 19.9 10 (16:30) 5.28 (16:30) 0 0 0 0 0
01-09-2018 24 (15:30) 15.7 (00:00) 19.8 6.39 (14:00) 3.33 (15:40) 0 0 0 0 0
31-08-2018 20.6 (14:00) 15.6 (00:00) 18.1 6.67 (14:00) 3.89 (14:00) 0 0 0 0 0
30-08-2018 22.9 (14:30) 15.7 (00:00) 19.3 7.5 (14:10) 3.33 (15:50) 0 0 0 0 0
29-08-2018 23.5 (16:20) 15.7 (00:00) 19.6 6.39 (14:40) 3.89 (14:40) 0 0 0 0 0
28-08-2018 22.9 (13:20) 13 (00:00) 17.9 8.61 (14:30) 3.61 (11:40) 0 0 0 0 0
27-08-2018 24.5 (15:20) 13.1 (00:00) 18.8 6.39 (17:10) 3.33 (18:50) 0 0 0 0 0
26-08-2018 28.5 (10:20) 14.6 (00:00) 21.6 6.39 (14:40) 2.78 (14:20) 0 0 0 0 0
25-08-2018 31.7 (11:20) 17 (00:00) 24.4 6.39 (14:00) 3.61 (13:40) 0 0 0 0 0
24-08-2018 30.6 (15:40) 17.7 (00:00) 24.2 5.56 (15:20) 2.78 (15:30) 0 0 0 0 0
23-08-2018 32.6 (10:40) 17.3 (00:00) 24.9 4.17 (14:00) 2.5 (14:00) 0 0 0 0 0

Gráficas

Temp. máximas Temp. mínimas Temp. medias Precipitaciones Rachas de viento máximas Velocidades máximas media en intervalos de 10 minutos

Datos horarios

Fecha y hora oficial Temperatura (ºC) Velocidad del viento (km/h) Dirección del viento Racha (km/h) Dirección de racha Precipitación (mm) Presión (hPa) Tendencia (hPa) Humedad (%)
2018-09-21 23:00:00 17.2 3 Norte 12 Noroeste 0 -- -- 97
2018-09-21 22:00:00 17 5 Norte 14 Norte 0 -- -- 97
2018-09-21 21:00:00 17.4 6 Noroeste 13 Norte 0 -- -- 94
2018-09-21 20:00:00 17.8 5 Norte 14 Norte 0 -- -- 92
2018-09-21 19:00:00 18.3 6 Norte 16 Noroeste 0 -- -- 91
2018-09-21 18:00:00 19.8 8 Norte 19 Norte 0 -- -- 84
2018-09-21 17:00:00 22.2 9 Nordeste 19 Nordeste 0 -- -- 76
2018-09-21 16:00:00 22.8 9 Nordeste 17 Nordeste 0 -- -- 71
2018-09-21 15:00:00 23.2 9 Norte 18 Nordeste 0 -- -- 67
2018-09-21 14:00:00 20.3 6 Nordeste 15 Norte 0 -- -- 84
2018-09-21 13:00:00 20.8 8 Nordeste 18 Norte 0 -- -- 80
2018-09-21 12:00:00 20.2 8 Norte 14 Norte 0 -- -- 84
2018-09-21 11:00:00 19 7 Norte 13 Nordeste 0 -- -- 85
2018-09-21 10:00:00 18 0 Calma 8 Nordeste 0 -- -- 93
2018-09-21 09:00:00 17.1 3 Norte 11 Oeste 0 -- -- 98
2018-09-21 08:00:00 16.2 4 Norte 10 Norte 0 -- -- 100
2018-09-21 07:00:00 16 4 Noroeste 9 Oeste 0 -- -- 100
2018-09-21 06:00:00 15.9 3 Oeste 12 Noroeste 0 -- -- 99
2018-09-21 05:00:00 16.3 5 Noroeste 14 Norte 0 -- -- 100
2018-09-21 04:00:00 16 8 Noroeste 14 Noroeste 0 -- -- 100
2018-09-21 03:00:00 14.7 7 Noroeste 12 Noroeste 0 -- -- 100
2018-09-21 02:00:00 13.2 6 Oeste 9 Oeste 0 -- -- 100
2018-09-21 01:00:00 13.1 2 Noroeste 7 Oeste 0 -- -- 98
2018-09-21 00:00:00 14.4 0 Calma 9 Sudoeste 0 -- -- 98
2018-09-20 23:00:00 16.3 5 Noroeste 9 Noroeste 0 -- -- 99
2018-09-20 22:00:00 16.5 3 Oeste 8 Oeste 0 -- -- 98
2018-09-20 21:00:00 17.6 0 Calma 10 Norte 0 -- -- 97
2018-09-20 20:00:00 18.4 4 Nordeste 10 Norte 0 -- -- 95
2018-09-20 19:00:00 19.6 7 Nordeste 13 Nordeste 0 -- -- 90
2018-09-20 18:00:00 22.5 8 Nordeste 17 Norte 0 -- -- 80
2018-09-20 17:00:00 21.9 9 Nordeste 20 Nordeste 0 -- -- 84
2018-09-20 16:00:00 23.7 0 Calma 15 Nordeste 0 -- -- 78
2018-09-20 15:00:00 24.7 7 Nordeste 15 Nordeste 0 -- -- 74
2018-09-20 14:00:00 23.1 9 Norte 18 Norte 0 -- -- 80
2018-09-20 13:00:00 23.6 9 Nordeste 17 Nordeste 0 -- -- 78
2018-09-20 12:00:00 23.5 8 Nordeste 18 Nordeste 0 -- -- 77
2018-09-20 11:00:00 23.1 6 Nordeste 11 Nordeste 0 -- -- 79
2018-09-20 10:00:00 22.5 4 Nordeste 9 Nordeste 0 -- -- 81
2018-09-20 09:00:00 22.4 2 Nordeste 6 Noroeste 0 -- -- 71
2018-09-20 08:00:00 15.8 5 Sudoeste 8 Sudoeste 0 -- -- 94
2018-09-20 07:00:00 15.9 5 Sudoeste 6 Sudoeste 0 -- -- 97
2018-09-20 06:00:00 16.3 5 Sudoeste 9 Sudoeste 0 -- -- 93
2018-09-20 05:00:00 15.9 4 Oeste 7 Oeste 0 -- -- 97
2018-09-20 04:00:00 16.4 4 Sur 6 Sur 0 -- -- 97
2018-09-20 03:00:00 17.3 6 Sur 8 Sudoeste 0 -- -- 97
2018-09-20 02:00:00 16.3 2 Sudoeste 6 Sur 0 -- -- 97
2018-09-20 01:00:00 16.2 6 Sudoeste 9 Sudoeste 0 -- -- 100
2018-09-20 00:00:00 16.1 4 Oeste 9 Oeste 0 -- -- 100
2018-09-19 23:00:00 17.3 3 Sudoeste 8 Sudoeste 0 -- -- 98
2018-09-19 22:00:00 18.4 0 Calma 6 Norte 0 -- -- 99
2018-09-19 21:00:00 18.7 3 Sudeste 6 Este 0 -- -- 97
2018-09-19 20:00:00 19.3 0 Calma 7 Este 0 -- -- 93
2018-09-19 19:00:00 21.1 4 Nordeste 9 Este 0 -- -- 86
2018-09-19 18:00:00 24 5 Este 14 Nordeste 0 -- -- 77
2018-09-19 17:00:00 23.9 6 Nordeste 13 Nordeste 0 -- -- 74
2018-09-19 16:00:00 25.2 3 Nordeste 19 Norte 0 -- -- 71
2018-09-19 15:00:00 25.3 11 Nordeste 21 Nordeste 0 -- -- 71
2018-09-19 14:00:00 25.2 7 Nordeste 20 Este 0 -- -- 72
2018-09-19 13:00:00 24.5 10 Norte 34 Norte 0 -- -- 72
2018-09-19 12:00:00 26.7 7 Sur 22 Sudeste 0 -- -- 54
2018-09-19 11:00:00 22.6 13 Sudeste 24 Este 0 -- -- 74
2018-09-19 10:00:00 19.8 7 Sudeste 14 Sudeste 0 -- -- 88
2018-09-19 09:00:00 19 0 Calma 9 Sudoeste 0 -- -- 92
2018-09-19 08:00:00 15.3 4 Sur 10 Sudoeste 0 -- -- 98
2018-09-19 07:00:00 16.6 7 Sudoeste 13 Sudeste 0 -- -- 98
2018-09-19 06:00:00 16.9 5 Sudeste 15 Sur 0 -- -- 99
2018-09-19 05:00:00 17.3 4 Este 15 Sudeste 0 -- -- 100
2018-09-19 04:00:00 17.7 7 Este 13 Este 0 -- -- 100
2018-09-19 03:00:00 17.9 5 Este 11 Este 0 -- -- 100
2018-09-19 02:00:00 17.5 0 Calma 14 Este 0 -- -- 100
2018-09-19 01:00:00 17.6 4 Nordeste 13 Nordeste 0 -- -- 99
2018-09-19 00:00:00 17.9 4 Nordeste 15 Nordeste 0 -- -- 98
2018-09-18 23:00:00 17.7 4 Este 12 Norte 0 -- -- 98
2018-09-18 22:00:00 17.5 4 Norte 8 Este 0 -- -- 98
2018-09-18 21:00:00 17.8 3 Nordeste 8 Nordeste 0 -- -- 96
2018-09-18 20:00:00 18.1 4 Norte 10 Nordeste 0 -- -- 96
2018-09-18 19:00:00 19.1 6 Este 14 Norte 0 -- -- 91
2018-09-18 18:00:00 22.6 8 Norte 17 Este 0 -- -- 77
2018-09-18 17:00:00 23.5 8 Nordeste 21 Nordeste 0 -- -- 70
2018-09-18 16:00:00 23.5 8 Nordeste 20 Nordeste 0 -- -- 69
2018-09-18 15:00:00 24.2 9 Nordeste 19 Nordeste 0 -- -- 67
2018-09-18 14:00:00 24.1 11 Este 23 Nordeste 0 -- -- 70
2018-09-18 13:00:00 24 11 Este 24 Sudeste 0 -- -- 73
2018-09-18 12:00:00 23.6 12 Este 21 Este 0 -- -- 68
2018-09-18 11:00:00 19 9 Este 19 Este 0 -- -- 86
2018-09-18 10:00:00 18 5 Este 10 Nordeste 0 -- -- 93
2018-09-18 09:00:00 17.2 3 Sur 12 Sur 0 -- -- 94
2018-09-18 08:00:00 16.7 5 Este 12 Sudeste 0 -- -- 98
2018-09-18 07:00:00 16.9 6 Este 13 Este 0 -- -- 98
2018-09-18 06:00:00 17 6 Este 11 Este 0 -- -- 97
2018-09-18 05:00:00 17 5 Este 11 Este 0 -- -- 95
2018-09-18 04:00:00 16.8 5 Sudeste 10 Sudeste 0 -- -- 95
2018-09-18 03:00:00 16.7 5 Este 12 Este 0 -- -- 97
2018-09-18 02:00:00 16.7 3 Este 10 Nordeste 0 -- -- 97
2018-09-18 01:00:00 16.8 3 Nordeste 10 Norte 0 -- -- 97
2018-09-18 00:00:00 16.9 6 Norte 10 Norte 0 -- -- 97
2018-09-17 23:00:00 17.1 4 Nordeste 10 Norte 0 -- -- 98
2018-09-17 22:00:00 17.3 3 Norte 11 Nordeste 0 -- -- 96
2018-09-17 21:00:00 17.5 3 Norte 8 Este 0 -- -- 96
2018-09-17 20:00:00 17.6 5 Nordeste 10 Este 0 -- -- 91
2018-09-17 19:00:00 18.8 7 Norte 18 Norte 0 -- -- 86
2018-09-17 18:00:00 20.7 6 Norte 18 Nordeste 0 -- -- 81
2018-09-17 17:00:00 21.4 9 Nordeste 18 Este 0 -- -- 78
2018-09-17 16:00:00 22.7 8 Norte 20 Este 0 -- -- 70
2018-09-17 15:00:00 21.7 0 Calma 17 Nordeste 0 -- -- 73
2018-09-17 14:00:00 21 9 Nordeste 19 Nordeste 0 -- -- 83
2018-09-17 13:00:00 21.3 8 Norte 15 Nordeste 0 -- -- 80
2018-09-17 12:00:00 20.3 5 Nordeste 15 Nordeste 0 -- -- 78
2018-09-17 11:00:00 19.2 4 Nordeste 13 Nordeste 0 -- -- 81
2018-09-17 10:00:00 17.5 3 Norte 14 Norte 0 -- -- 90
2018-09-17 09:00:00 16.8 4 Norte 13 Norte 0 -- -- 97
2018-09-17 08:00:00 16.1 4 Noroeste 15 Oeste 0 -- -- 96
2018-09-17 07:00:00 16.4 6 Noroeste 14 Oeste 0 -- -- 95
2018-09-17 06:00:00 16.5 5 Noroeste 15 Oeste 0 -- -- 93
2018-09-17 05:00:00 16.4 7 Oeste 24 Oeste 0 -- -- 93
2018-09-17 04:00:00 16.5 7 Oeste 23 Noroeste 0 -- -- 94
2018-09-17 03:00:00 16.6 9 Noroeste 23 Noroeste 0 -- -- 94
2018-09-17 02:00:00 16.6 11 Noroeste 25 Noroeste 0 -- -- 95
2018-09-17 01:00:00 16.7 10 Oeste 29 Noroeste 0 -- -- 94
2018-09-17 00:00:00 16.4 12 Oeste 21 Oeste 0 -- -- 96
2018-09-16 23:00:00 17.3 5 Oeste 23 Oeste 0 -- -- 95
2018-09-16 22:00:00 17.1 7 Noroeste 15 Noroeste 0 -- -- 97
2018-09-16 21:00:00 16.6 6 Noroeste 15 Noroeste 0 -- -- 96
2018-09-16 20:00:00 17.3 8 Noroeste 17 Norte 0 -- -- 96
2018-09-16 19:00:00 18.1 9 Noroeste 16 Noroeste 0 -- -- 93
2018-09-16 18:00:00 18.8 8 Noroeste 19 Noroeste 0 -- -- 90
2018-09-16 17:00:00 19.1 10 Norte 23 Norte 0 -- -- 90
2018-09-16 16:00:00 21.6 12 Norte 25 Noroeste 0 -- -- 80
2018-09-16 15:00:00 19.9 13 Norte 24 Norte 0 -- -- 84
2018-09-16 14:00:00 22.3 12 Norte 24 Nordeste 0 -- -- 73
2018-09-16 13:00:00 22.2 10 Norte 23 Norte 0 -- -- 76
2018-09-16 12:00:00 21.9 9 Norte 18 Norte 0 -- -- 78
2018-09-16 11:00:00 20.2 9 Norte 16 Norte 0 -- -- 88
2018-09-16 10:00:00 19.5 7 Noroeste 14 Noroeste 0 -- -- 84
2018-09-16 09:00:00 17.5 0 Calma 8 Norte 0 -- -- 98
2018-09-16 08:00:00 16.9 7 Norte 13 Norte 0 -- -- 100
2018-09-16 07:00:00 16 5 Oeste 9 Noroeste 0 -- -- 100
2018-09-16 06:00:00 17.1 3 Norte 15 Noroeste 0 -- -- 100
2018-09-16 05:00:00 17.2 6 Norte 13 Norte 0 -- -- 100
2018-09-16 04:00:00 17.2 8 Noroeste 15 Noroeste 0 -- -- 99
2018-09-16 03:00:00 17.3 8 Noroeste 14 Noroeste 0 -- -- 97
2018-09-16 02:00:00 17 6 Noroeste 15 Norte 0 -- -- 97
2018-09-16 01:00:00 17 10 Oeste 23 Oeste 0 -- -- 93
2018-09-16 00:00:00 16.5 13 Oeste 22 Oeste 0 -- -- 92
2018-09-15 23:00:00 16.2 11 Oeste 23 Oeste 0 -- -- 89
2018-09-15 22:00:00 16.5 7 Noroeste 23 Noroeste 0 -- -- 94
2018-09-15 21:00:00 16.8 8 Noroeste 23 Noroeste 0 -- -- 90
2018-09-15 20:00:00 17.6 8 Noroeste 27 Noroeste 0 -- -- 91
2018-09-15 19:00:00 18.6 11 Noroeste 30 Noroeste 0 -- -- 84
2018-09-15 18:00:00 21.7 14 Noroeste 35 Norte 0 -- -- 70
2018-09-15 17:00:00 23.1 12 Noroeste 37 Noroeste 0 -- -- 62
2018-09-15 16:00:00 24 16 Noroeste 31 Noroeste 0 -- -- 52
2018-09-15 15:00:00 25.2 11 Norte 30 Noroeste 0 -- -- 50
2018-09-15 14:00:00 25.4 12 Norte 26 Norte 0 -- -- 49
2018-09-15 13:00:00 25.2 11 Norte 22 Noroeste 0 -- -- 47
2018-09-15 12:00:00 24.2 9 Norte 20 Norte 0 -- -- 57
2018-09-15 11:00:00 23.7 9 Norte 19 Norte 0 -- -- 59
2018-09-15 10:00:00 23.7 9 Noroeste 22 Noroeste 0 -- -- 58
2018-09-15 09:00:00 19.6 6 Noroeste 24 Noroeste 0 -- -- 85
2018-09-15 08:00:00 17 0 Calma 9 Sudeste 0 -- -- 100
2018-09-15 07:00:00 17.1 5 Sudoeste 23 Noroeste 0 -- -- 100
2018-09-15 06:00:00 18.3 11 Noroeste 24 Noroeste 0 -- -- 100
2018-09-15 05:00:00 18.3 4 Sudoeste 20 Oeste 0 -- -- 95
2018-09-15 04:00:00 20.4 11 Oeste 19 Oeste 0 -- -- 86
2018-09-15 03:00:00 20.8 9 Oeste 21 Oeste 0 -- -- 85
2018-09-15 02:00:00 20.2 9 Oeste 17 Oeste 0 -- -- 88
2018-09-15 01:00:00 18.4 0 Calma 8 Noroeste 0 -- -- 96
2018-09-15 00:00:00 19.5 2 Noroeste 10 Oeste 0 -- -- 89
2018-09-14 23:00:00 19.9 0 Calma 9 Oeste 0 -- -- 85
2018-09-14 22:00:00 19 5 Noroeste 11 Noroeste 0 -- -- 90
2018-09-14 21:00:00 18.9 0 Calma 6 Noroeste 0 -- -- 96
2018-09-14 20:00:00 21.6 2 Nordeste 5 Nordeste 0 -- -- 93
2018-09-14 19:00:00 23.3 5 Nordeste 9 Nordeste 0 -- -- 87
2018-09-14 18:00:00 24.1 6 Nordeste 14 Nordeste 0 -- -- 84
2018-09-14 17:00:00 24.1 9 Nordeste 16 Norte 0 -- -- 84
2018-09-14 16:00:00 26.7 3 Nordeste 20 Nordeste 0 -- -- 73
2018-09-14 15:00:00 27.3 8 Nordeste 20 Norte 0 -- -- 68
2018-09-14 14:00:00 28 11 Nordeste 19 Este 0 -- -- 66
2018-09-14 13:00:00 28.2 9 Este 19 Este 0 -- -- 62
2018-09-14 12:00:00 27.1 10 Nordeste 21 Nordeste 0 -- -- 65
2018-09-14 11:00:00 27.7 8 Este 16 Este 0 -- -- 59
2018-09-14 10:00:00 26.8 0 Calma 4 Este 0 -- -- 58
2018-09-14 09:00:00 21.5 0 Calma 6 Sudoeste 0 -- -- 79
2018-09-14 08:00:00 17.7 5 Sudoeste 8 Sudoeste 0 -- -- 87
2018-09-14 07:00:00 17.8 4 Oeste 10 Sudoeste 0 -- -- 85
2018-09-14 06:00:00 17.8 5 Sudoeste 8 Sudoeste 0 -- -- 92
2018-09-14 05:00:00 18.3 5 Sudoeste 9 Sudoeste 0 -- -- 87
2018-09-14 04:00:00 17.8 3 Sur 6 Sur 0 -- -- 87
2018-09-14 03:00:00 17.8 0 Calma 6 Sudoeste 0 -- -- 85
2018-09-14 02:00:00 18.8 3 Sudoeste 8 Sudoeste 0 -- -- 80
2018-09-14 01:00:00 18.7 0 Calma 8 Sudoeste 0 -- -- 81
2018-09-14 00:00:00 19.3 5 Sudoeste 10 Sudoeste 0 -- -- 78
2018-09-13 23:00:00 20 6 Sudoeste 9 Sudoeste 0 -- -- 79
2018-09-13 22:00:00 19.7 3 Oeste 11 Sudoeste 0 -- -- 73
2018-09-13 21:00:00 19.5 4 Sudoeste 5 Sudoeste 0 -- -- 82
2018-09-13 20:00:00 22.1 0 Calma 6 Este 0 -- -- 75
2018-09-13 19:00:00 25.3 5 Norte 13 Norte 0 -- -- 63
2018-09-13 18:00:00 28.1 8 Norte 14 Nordeste 0 -- -- 59
2018-09-13 17:00:00 28.7 8 Norte 18 Este 0 -- -- 57
2018-09-13 16:00:00 28.3 2 Nordeste 21 Norte 0 -- -- 60
2018-09-13 15:00:00 28.9 9 Norte 22 Este 0 -- -- 55
2018-09-13 14:00:00 29.8 14 Este 28 Sudeste 0 -- -- 48
2018-09-13 13:00:00 29.1 13 Este 28 Sudeste 0 -- -- 51
2018-09-13 12:00:00 27.5 15 Sudeste 30 Sudeste 0 -- -- 58
2018-09-13 11:00:00 26.3 16 Sudeste 26 Este 0 -- -- 64
2018-09-13 10:00:00 24.8 10 Sudeste 20 Este 0 -- -- 71
2018-09-13 09:00:00 23.7 0 Calma 13 Sudoeste 0 -- -- 75
2018-09-13 08:00:00 19.7 3 Sur 7 Sur 0 -- -- 91
2018-09-13 07:00:00 18.5 5 Sudoeste 8 Sudoeste 0 -- -- 98
2018-09-13 06:00:00 18.5 3 Oeste 6 Oeste 0 -- -- 97
2018-09-13 05:00:00 19 0 Calma 8 Sudoeste 0 -- -- 96
2018-09-13 04:00:00 18.6 5 Sudoeste 8 Sudoeste 0 -- -- 98
2018-09-13 03:00:00 18.3 4 Oeste 7 Oeste 0 -- -- 96
2018-09-13 02:00:00 18.6 2 Sudoeste 5 Sudeste 0 -- -- 95
2018-09-13 01:00:00 19.2 2 Sudoeste 8 Sudoeste 0 -- -- 94
2018-09-13 00:00:00 19.5 6 Sudoeste 10 Oeste 0 -- -- 98
2018-09-12 23:00:00 18.7 2 Sur 5 Sur 0 -- -- 99
2018-09-12 22:00:00 19.1 3 Sur 6 Sudeste 0 -- -- 98
2018-09-12 21:00:00 20.1 4 Sudeste 6 Sudeste 0 -- -- 95
2018-09-12 20:00:00 22.3 2 Este 11 Sudeste 0 -- -- 87
2018-09-12 19:00:00 24.1 7 Nordeste 12 Nordeste 0 -- -- 79
2018-09-12 18:00:00 26 2 Nordeste 15 Nordeste 0 -- -- 73
2018-09-12 17:00:00 27.7 7 Norte 15 Norte 0 -- -- 67
2018-09-12 16:00:00 28.9 0 Calma 26 Noroeste 0 -- -- 61
2018-09-12 15:00:00 29.8 12 Este 40 Sudeste 0 -- -- 55
2018-09-12 14:00:00 29 22 Sudeste 43 Sudeste 0 -- -- 56
2018-09-12 13:00:00 27.3 10 Nordeste 21 Nordeste 0 -- -- 69
2018-09-12 12:00:00 27.2 9 Este 17 Este 0 -- -- 70
2018-09-12 11:00:00 24.2 4 Nordeste 12 Este 0 -- -- 77
2018-09-12 10:00:00 21.3 4 Nordeste 9 Nordeste 0 -- -- 91
2018-09-12 09:00:00 17.8 5 Sudeste 15 Sur 0 -- -- 100
2018-09-12 08:00:00 16.8 8 Sur 14 Sudoeste 0 -- -- 100
2018-09-12 07:00:00 16.3 5 Sur 10 Sudeste 0 -- -- 100
2018-09-12 06:00:00 15.9 2 Sur 7 Sudeste 0 -- -- 100
2018-09-12 05:00:00 16.2 4 Sudeste 9 Oeste 0 -- -- 100
2018-09-12 04:00:00 14.7 3 Oeste 8 Sudeste 0 -- -- 100
2018-09-12 03:00:00 15.7 3 Este 16 Sudeste 0 -- -- 100
2018-09-12 02:00:00 16.9 6 Este 13 Sudeste 0 -- -- 100
2018-09-12 01:00:00 17.1 6 Este 13 Este 0 -- -- 100
2018-09-12 00:00:00 17 2 Sudeste 11 Nordeste 0 -- -- 100
2018-09-11 23:00:00 17.5 2 Sudeste 11 Nordeste 0 -- -- 99
2018-09-11 22:00:00 17.7 2 Nordeste 10 Norte 0 -- -- 97
2018-09-11 21:00:00 17 3 Sudoeste 13 Norte 0 -- -- 95
2018-09-11 20:00:00 17.8 6 Norte 15 Este 0 -- -- 92
2018-09-11 19:00:00 19.3 8 Nordeste 16 Nordeste 0 -- -- 84
2018-09-11 18:00:00 21.6 9 Este 19 Nordeste 0 -- -- 73
2018-09-11 17:00:00 22.6 8 Este 21 Nordeste 0 -- -- 67
2018-09-11 16:00:00 22.7 10 Nordeste 25 Nordeste 0 -- -- 66
2018-09-11 15:00:00 21 10 Nordeste 18 Nordeste 0 -- -- 74
2018-09-11 14:00:00 20.9 8 Norte 21 Norte 0 -- -- 71
2018-09-11 13:00:00 20.1 12 Norte 19 Norte 0 -- -- 79
2018-09-11 12:00:00 18.6 8 Norte 17 Norte 0 -- -- 89
2018-09-11 11:00:00 20 7 Norte 16 Noroeste 0 -- -- 84
2018-09-11 10:00:00 17.9 6 Noroeste 16 Sudoeste 0 -- -- 88
2018-09-11 09:00:00 17 5 Oeste 19 Sudoeste 0 -- -- 88
2018-09-11 08:00:00 15.3 11 Oeste 22 Sudoeste 0 -- -- 96
2018-09-11 07:00:00 14.7 9 Oeste 15 Oeste 0 -- -- 100
2018-09-11 06:00:00 15.2 5 Noroeste 15 Norte 0 -- -- 100
2018-09-11 05:00:00 15.4 3 Noroeste 14 Norte 0 -- -- 100
2018-09-11 04:00:00 15.8 8 Norte 18 Nordeste 0 -- -- 100
2018-09-11 03:00:00 16.1 10 Norte 23 Norte 0 -- -- 100
2018-09-11 02:00:00 16.3 10 Norte 22 Norte 0.2 -- -- 100
2018-09-11 01:00:00 16.5 9 Norte 22 Noroeste 0.4 -- -- 100
2018-09-11 00:00:00 15.8 6 Oeste 12 Oeste 0 -- -- 97
2018-09-10 23:00:00 14.6 4 Sudoeste 10 Sudoeste 0 -- -- 96
2018-09-10 22:00:00 16.2 5 Noroeste 20 Noroeste 0 -- -- 97
2018-09-10 21:00:00 16.6 6 Norte 17 Norte 0 -- -- 97
2018-09-10 20:00:00 16.8 10 Noroeste 20 Norte 0 -- -- 95
2018-09-10 19:00:00 17.7 9 Norte 23 Norte 0 -- -- 93
2018-09-10 18:00:00 18.7 12 Norte 29 Norte 0 -- -- 86
2018-09-10 17:00:00 19.6 6 Norte 24 Noroeste 0 -- -- 78
2018-09-10 16:00:00 20.2 9 Norte 29 Nordeste 0 -- -- 73
2018-09-10 15:00:00 21.6 8 Norte 22 Norte 0 -- -- 63
2018-09-10 14:00:00 20.1 13 Norte 27 Norte 0 -- -- 78
2018-09-10 13:00:00 19 8 Norte 22 Norte 0 -- -- 84
2018-09-10 12:00:00 19.9 8 Norte 24 Noroeste 0 -- -- 80
2018-09-10 11:00:00 19.5 11 Norte 22 Norte 0 -- -- 80
2018-09-10 10:00:00 17 0 Calma 16 Norte 0 -- -- 100
2018-09-10 09:00:00 16 6 Norte 15 Norte 0 -- -- 100
2018-09-10 08:00:00 15.6 6 Norte 22 Norte 0 -- -- 100
2018-09-10 07:00:00 15.7 9 Norte 21 Norte 0 -- -- 100
2018-09-10 06:00:00 15.6 5 Norte 22 Norte 0 -- -- 100
2018-09-10 05:00:00 15.8 8 Norte 21 Norte 0.2 -- -- 100
2018-09-10 04:00:00 16.3 9 Norte 19 Noroeste 0 -- -- 100
2018-09-10 03:00:00 16 4 Norte 19 Norte 0 -- -- 100
2018-09-10 02:00:00 16.1 6 Noroeste 18 Norte 0 -- -- 100
2018-09-10 01:00:00 16.3 7 Norte 23 Noroeste 0 -- -- 100
2018-09-10 00:00:00 16.9 9 Nordeste 22 Nordeste 0 -- -- 100
2018-09-09 23:00:00 16.4 4 Nordeste 13 Nordeste 0 -- -- 96
2018-09-09 22:00:00 15.9 5 Norte 12 Nordeste 0 -- -- 98
2018-09-09 21:00:00 15.8 5 Norte 20 Norte 0 -- -- 95
2018-09-09 20:00:00 17 9 Norte 22 Noroeste 0 -- -- 93
2018-09-09 19:00:00 17.6 11 Norte 21 Norte 0 -- -- 91
2018-09-09 18:00:00 20.1 9 Norte 21 Este 0 -- -- 74
2018-09-09 17:00:00 20.4 10 Norte 19 Norte 0 -- -- 73
2018-09-09 16:00:00 21.4 0 Calma 3 Este 0 -- -- 68
2018-09-09 15:00:00 19.9 0 Calma 22 Norte 0 -- -- 74
2018-09-09 14:00:00 20.2 10 Norte 23 Nordeste 0 -- -- 72
2018-09-09 13:00:00 18.9 13 Norte 22 Norte 0 -- -- 83
2018-09-09 12:00:00 20.8 9 Nordeste 20 Nordeste 0 -- -- 71
2018-09-09 11:00:00 19.4 11 Nordeste 20 Nordeste 0 -- -- 77
2018-09-09 10:00:00 18.2 7 Nordeste 19 Norte 0 -- -- 84
2018-09-09 09:00:00 15.6 4 Nordeste 8 Norte 0 -- -- 98
2018-09-09 08:00:00 14.2 4 Oeste 8 Noroeste 0 -- -- 100
2018-09-09 07:00:00 14.7 5 Norte 10 Norte 0 -- -- 100
2018-09-09 06:00:00 15 4 Noroeste 12 Norte 0 -- -- 100
2018-09-09 05:00:00 14.4 4 Noroeste 13 Norte 0 -- -- 99
2018-09-09 04:00:00 15.2 3 Norte 12 Norte 0 -- -- 100
2018-09-09 03:00:00 15 4 Norte 15 Noroeste 0 -- -- 100
2018-09-09 02:00:00 15.1 5 Norte 14 Norte 0 -- -- 100
2018-09-09 01:00:00 14.5 3 Oeste 6 Oeste 0 -- -- 100
2018-09-09 00:00:00 14.4 3 Noroeste 9 Norte 0 -- -- 99
2018-09-08 23:00:00 14.8 4 Noroeste 9 Norte 0 -- -- 99
2018-09-08 22:00:00 14.1 5 Oeste 8 Oeste 0 -- -- 98
2018-09-08 21:00:00 13.3 7 Noroeste 9 Oeste 0 -- -- 97
2018-09-08 20:00:00 15.6 4 Oeste 16 Nordeste 0 -- -- 87
2018-09-08 19:00:00 18.7 8 Norte 17 Nordeste 0 -- -- 79
2018-09-08 18:00:00 20.2 10 Norte 19 Nordeste 0 -- -- 69
2018-09-08 17:00:00 21.6 5 Nordeste 18 Nordeste 0 -- -- 61
2018-09-08 16:00:00 21.2 11 Norte 25 Nordeste 0 -- -- 63
2018-09-08 15:00:00 21.8 12 Norte 23 Norte 0 -- -- 63
2018-09-08 14:00:00 21.1 11 Norte 24 Nordeste 0 -- -- 66
2018-09-08 13:00:00 20.1 9 Nordeste 19 Nordeste 0 -- -- 68
2018-09-08 12:00:00 19 8 Norte 17 Nordeste 0 -- -- 74
2018-09-08 11:00:00 17.8 6 Norte 14 Noroeste 0 -- -- 75
2018-09-08 10:00:00 16.9 7 Norte 17 Norte 0 -- -- 94
2018-09-08 09:00:00 16.1 0 Calma 11 Norte 0 -- -- 100
2018-09-08 08:00:00 15.3 7 Norte 15 Norte 0 -- -- 100
2018-09-08 07:00:00 15.2 8 Norte 16 Norte 0 -- -- 100
2018-09-08 06:00:00 14.5 5 Sudoeste 9 Oeste 0 -- -- 100
2018-09-08 05:00:00 14.1 3 Oeste 9 Oeste 0 -- -- 100
2018-09-08 04:00:00 12.5 6 Oeste 11 Oeste 0 -- -- 100
2018-09-08 03:00:00 12.9 4 Oeste 8 Oeste 0 -- -- 100
2018-09-08 02:00:00 14.7 5 Noroeste 9 Noroeste 0 -- -- 100
2018-09-08 01:00:00 13.4 5 Oeste 9 Noroeste 0 -- -- 99
2018-09-08 00:00:00 14.4 5 Oeste 9 Oeste 0 -- -- 100
2018-09-07 23:00:00 14.5 6 Oeste 12 Noroeste 0 -- -- 98
2018-09-07 22:00:00 16 5 Norte 16 Oeste 0 -- -- 97
2018-09-07 21:00:00 15.4 6 Oeste 13 Oeste 0 -- -- 96
2018-09-07 20:00:00 16.5 5 Noroeste 13 Noroeste 0 -- -- 88
2018-09-07 19:00:00 18.4 6 Norte 15 Nordeste 0 -- -- 84
2018-09-07 18:00:00 18.7 8 Nordeste 16 Nordeste 0 -- -- 82
2018-09-07 17:00:00 19.4 6 Norte 16 Nordeste 0 -- -- 78
2018-09-07 16:00:00 19 6 Norte 14 Nordeste 0 -- -- 80
2018-09-07 15:00:00 18.2 0 Calma 16 Este 0 -- -- 87
2018-09-07 14:00:00 19.1 8 Nordeste 17 Norte 0 -- -- 85
2018-09-07 13:00:00 20.4 9 Nordeste 19 Este 0 -- -- 78
2018-09-07 12:00:00 21.3 10 Este 19 Este 0 -- -- 72
2018-09-07 11:00:00 22.8 9 Este 19 Nordeste 0 -- -- 67
2018-09-07 10:00:00 17.3 0 Calma 8 Noroeste 0 -- -- 93
2018-09-07 09:00:00 16.4 0 Calma 8 Norte 0 -- -- 99
2018-09-07 08:00:00 15.7 4 Nordeste 10 Norte 0 -- -- 100
2018-09-07 07:00:00 15.1 4 Sudoeste 9 Oeste 0 -- -- 100
2018-09-07 06:00:00 14.1 5 Oeste 8 Noroeste 0 -- -- 100
2018-09-07 05:00:00 15.7 5 Norte 13 Nordeste 0 -- -- 100
2018-09-07 04:00:00 16.1 3 Noroeste 10 Norte 0 -- -- 100
2018-09-07 03:00:00 16.4 5 Norte 15 Noroeste 0 -- -- 100
2018-09-07 02:00:00 16.7 7 Norte 16 Noroeste 0 -- -- 100
2018-09-07 01:00:00 16.5 7 Norte 14 Norte 0 -- -- 100
2018-09-07 00:00:00 16.3 5 Noroeste 13 Norte 0 -- -- 99
2018-09-06 23:00:00 16.9 6 Norte 12 Noroeste 0 -- -- 99
2018-09-06 22:00:00 16.4 5 Noroeste 10 Noroeste 0 -- -- 98
2018-09-06 21:00:00 16.9 2 Norte 11 Norte 0 -- -- 97
2018-09-06 20:00:00 17.1 6 Norte 13 Noroeste 0 -- -- 95
2018-09-06 19:00:00 17.7 6 Norte 12 Norte 0 -- -- 95
2018-09-06 18:00:00 17.9 6 Norte 14 Norte 0 -- -- 96
2018-09-06 17:00:00 18.5 6 Nordeste 11 Nordeste 0 -- -- 94
2018-09-06 16:00:00 18.5 0 Calma 2 Noroeste 0 -- -- 92
2018-09-06 15:00:00 18.4 6 Nordeste 17 Norte 0 -- -- 93
2018-09-06 14:00:00 20.9 9 Nordeste 17 Nordeste 0 -- -- 84
2018-09-06 13:00:00 21.7 8 Nordeste 15 Norte 0 -- -- 81
2018-09-06 12:00:00 19 5 Este 14 Sudeste 0 -- -- 95
2018-09-06 11:00:00 18.2 6 Nordeste 13 Nordeste 0 -- -- 96
2018-09-06 10:00:00 18.1 0 Calma 2 Este 0 -- -- 93
2018-09-06 09:00:00 17.4 0 Calma 9 Sur 0 -- -- 98
2018-09-06 08:00:00 16.4 4 Norte 10 Este 0 -- -- 100
2018-09-06 07:00:00 16.2 3 Sur 14 Sudeste 0 -- -- 100
2018-09-06 06:00:00 16.3 4 Sudoeste 7 Norte 0 -- -- 100
2018-09-06 05:00:00 16.6 3 Este 8 Norte 0 -- -- 100
2018-09-06 04:00:00 16.7 4 Norte 15 Norte 0 -- -- 100
2018-09-06 03:00:00 17.2 5 Norte 13 Norte 0 -- -- 99
2018-09-06 02:00:00 16.8 3 Norte 9 Norte 0 -- -- 99
2018-09-06 01:00:00 17.1 4 Este 9 Nordeste 0 -- -- 98
2018-09-06 00:00:00 17 5 Norte 8 Norte 0 -- -- 98
2018-09-05 23:00:00 17.4 6 Norte 13 Noroeste 0 -- -- 95
2018-09-05 22:00:00 17.2 6 Oeste 13 Noroeste 0 -- -- 95
2018-09-05 21:00:00 17.3 5 Noroeste 12 Noroeste 0 -- -- 95
2018-09-05 20:00:00 17.7 4 Norte 15 Nordeste 0 -- -- 92
2018-09-05 19:00:00 18.6 4 Norte 15 Norte 0 -- -- 88
2018-09-05 18:00:00 20.3 7 Nordeste 15 Nordeste 0 -- -- 84
2018-09-05 17:00:00 19.3 6 Norte 14 Nordeste 0 -- -- 89
2018-09-05 16:00:00 20.2 6 Nordeste 18 Norte 0 -- -- 88
2018-09-05 15:00:00 22.6 8 Nordeste 19 Nordeste 0 -- -- 77
2018-09-05 14:00:00 23.4 12 Norte 19 Norte 0 -- -- 73
2018-09-05 13:00:00 22.7 10 Norte 20 Este 0 -- -- 74
2018-09-05 12:00:00 23.1 8 Nordeste 18 Nordeste 0 -- -- 71
2018-09-05 11:00:00 19.5 7 Norte 15 Norte 0 -- -- 84
2018-09-05 10:00:00 18 6 Este 12 Sudeste 0 -- -- 91
2018-09-05 09:00:00 17 0 Calma 7 Noroeste 0 -- -- 97
2018-09-05 08:00:00 16.4 2 Noroeste 12 Noroeste 0 -- -- 98
2018-09-05 07:00:00 15.8 5 Noroeste 11 Oeste 0 -- -- 98
2018-09-05 06:00:00 16.3 4 Oeste 14 Norte 0 -- -- 97
2018-09-05 05:00:00 15.7 9 Noroeste 17 Norte 0 -- -- 95
2018-09-05 04:00:00 15.4 5 Oeste 15 Noroeste 0 -- -- 96
2018-09-05 03:00:00 16.2 7 Noroeste 16 Oeste 0 -- -- 96
2018-09-05 02:00:00 16.6 5 Noroeste 13 Noroeste 0 -- -- 96
2018-09-05 01:00:00 16.4 5 Noroeste 16 Noroeste 0 -- -- 96
2018-09-05 00:00:00 16.7 6 Noroeste 19 Noroeste 0 -- -- 96
2018-09-04 23:00:00 16.2 4 Noroeste 14 Noroeste 0 -- -- 97
2018-09-04 22:00:00 15.8 5 Noroeste 15 Noroeste 0 -- -- 95
2018-09-04 21:00:00 15.4 6 Noroeste 10 Oeste 0 -- -- 88
2018-09-04 20:00:00 17.7 4 Noroeste 11 Norte 0 -- -- 82
2018-09-04 19:00:00 20.9 7 Norte 17 Norte 0 -- -- 71
2018-09-04 18:00:00 21.9 4 Norte 15 Norte 0 -- -- 70
2018-09-04 17:00:00 22.4 9 Nordeste 20 Nordeste 0 -- -- 67
2018-09-04 16:00:00 23.2 9 Nordeste 18 Noroeste 0 -- -- 68
2018-09-04 15:00:00 22.7 11 Norte 21 Norte 0 -- -- 69
2018-09-04 14:00:00 22.6 11 Nordeste 23 Nordeste 0 -- -- 72
2018-09-04 13:00:00 22.7 9 Nordeste 19 Este 0 -- -- 69
2018-09-04 12:00:00 22 9 Nordeste 17 Norte 0 -- -- 75
2018-09-04 11:00:00 19.5 6 Norte 16 Norte 0 -- -- 83
2018-09-04 10:00:00 17.6 0 Calma 12 Noroeste 0 -- -- 94
2018-09-04 09:00:00 17.2 5 Noroeste 13 Noroeste 0 -- -- 93
2018-09-04 08:00:00 16.2 5 Noroeste 12 Noroeste 0 -- -- 96
2018-09-04 07:00:00 16.1 5 Norte 12 Noroeste 0 -- -- 96
2018-09-04 06:00:00 16.4 5 Norte 15 Norte 0 -- -- 98
2018-09-04 05:00:00 16.5 4 Oeste 10 Noroeste 0 -- -- 97
2018-09-04 04:00:00 16.3 6 Norte 10 Noroeste 0 -- -- 95
2018-09-04 03:00:00 16.2 7 Noroeste 15 Noroeste 0 -- -- 96
2018-09-04 02:00:00 16.4 6 Noroeste 17 Oeste 0 -- -- 95
2018-09-04 01:00:00 16.3 6 Noroeste 12 Noroeste 0 -- -- 96
2018-09-04 00:00:00 16.4 5 Noroeste 13 Noroeste 0 -- -- 96
2018-09-03 23:00:00 16.8 6 Noroeste 17 Noroeste 0 -- -- 95
2018-09-03 22:00:00 17 6 Noroeste 18 Noroeste 0 -- -- 94
2018-09-03 21:00:00 16.7 9 Noroeste 17 Noroeste 0 -- -- 94
2018-09-03 20:00:00 17.1 8 Noroeste 14 Norte 0 -- -- 90
2018-09-03 19:00:00 19.7 9 Norte 21 Norte 0 -- -- 79
2018-09-03 18:00:00 22.1 9 Norte 21 Nordeste 0 -- -- 70
2018-09-03 17:00:00 22.5 10 Norte 21 Norte 0 -- -- 71
2018-09-03 16:00:00 23.3 9 Nordeste 22 Nordeste 0 -- -- 64
2018-09-03 15:00:00 23.2 12 Nordeste 23 Nordeste 0 -- -- 69
2018-09-03 14:00:00 23.9 10 Nordeste 22 Norte 0 -- -- 64
2018-09-03 13:00:00 23 8 Norte 19 Este 0 -- -- 67
2018-09-03 12:00:00 22.5 6 Nordeste 15 Nordeste 0 -- -- 71
2018-09-03 11:00:00 20.2 6 Nordeste 14 Norte 0 -- -- 79
2018-09-03 10:00:00 17.6 5 Norte 13 Norte 0 -- -- 89
2018-09-03 09:00:00 16.9 4 Norte 17 Norte 0 -- -- 92
2018-09-03 08:00:00 16.4 4 Noroeste 10 Noroeste 0 -- -- 94
2018-09-03 07:00:00 16.2 4 Noroeste 13 Noroeste 0 -- -- 97
2018-09-03 06:00:00 16.4 5 Norte 14 Norte 0 -- -- 98
2018-09-03 05:00:00 16.5 3 Norte 10 Norte 0 -- -- 95
2018-09-03 04:00:00 16.3 6 Noroeste 13 Norte 0 -- -- 95
2018-09-03 03:00:00 16.4 6 Norte 16 Norte 0 -- -- 97
2018-09-03 02:00:00 16.8 6 Norte 14 Norte 0 -- -- 98
2018-09-03 01:00:00 16.7 6 Norte 17 Norte 0 -- -- 98
2018-09-03 00:00:00 16.8 7 Norte 16 Noroeste 0 -- -- 97
2018-09-02 23:00:00 16.9 9 Norte 18 Norte 0 -- -- 97
2018-09-02 22:00:00 17 10 Noroeste 16 Noroeste 0 -- -- 96
2018-09-02 21:00:00 17.1 6 Noroeste 18 Norte 0 -- -- 95
2018-09-02 20:00:00 17.3 9 Norte 22 Norte 0 -- -- 88
2018-09-02 19:00:00 18.5 13 Norte 26 Noroeste 0 -- -- 87
2018-09-02 18:00:00 21.4 5 Norte 28 Noroeste 0 -- -- 76
2018-09-02 17:00:00 22.5 14 Norte 36 Noroeste 0 -- -- 70
2018-09-02 16:00:00 23.6 10 Norte 26 Noroeste 0 -- -- 65
2018-09-02 15:00:00 23 7 Norte 20 Nordeste 0 -- -- 66
2018-09-02 14:00:00 20.4 6 Norte 17 Nordeste 0 -- -- 77
2018-09-02 13:00:00 20.8 9 Nordeste 19 Nordeste 0 -- -- 78
2018-09-02 12:00:00 20.9 7 Nordeste 14 Norte 0 -- -- 75
2018-09-02 11:00:00 19.2 4 Norte 14 Norte 0 -- -- 83
2018-09-02 10:00:00 18.2 7 Noroeste 16 Nordeste 0 -- -- 84
2018-09-02 09:00:00 16.7 0 Calma 14 Norte 0 -- -- 92
2018-09-02 08:00:00 16.4 4 Norte 11 Noroeste 0 -- -- 94
2018-09-02 07:00:00 16.2 5 Noroeste 21 Noroeste 0 -- -- 93
2018-09-02 06:00:00 16.1 6 Noroeste 15 Oeste 0 -- -- 93
2018-09-02 05:00:00 16.1 6 Noroeste 15 Noroeste 0 -- -- 93
2018-09-02 04:00:00 16.1 9 Noroeste 20 Noroeste 0 -- -- 95
2018-09-02 03:00:00 16.2 7 Noroeste 14 Noroeste 0 -- -- 94
2018-09-02 02:00:00 16.7 4 Norte 11 Noroeste 0 -- -- 95
2018-09-02 01:00:00 16.6 4 Noroeste 13 Noroeste 0 -- -- 95
2018-09-02 00:00:00 16.7 7 Norte 15 Norte 0 -- -- 95
2018-09-01 23:00:00 16.8 10 Noroeste 18 Noroeste 0 -- -- 94
2018-09-01 22:00:00 16.7 8 Noroeste 14 Noroeste 0 -- -- 93
2018-09-01 21:00:00 16.8 8 Noroeste 14 Norte 0 -- -- 92
2018-09-01 20:00:00 17.5 6 Norte 14 Norte 0 -- -- 93
2018-09-01 19:00:00 18.3 7 Norte 15 Norte 0 -- -- 91
2018-09-01 18:00:00 18.8 8 Norte 14 Norte 0 -- -- 89
2018-09-01 17:00:00 19.9 0 Calma 18 Norte 0 -- -- 84
2018-09-01 16:00:00 21.7 10 Norte 21 Norte 0 -- -- 77
2018-09-01 15:00:00 22.9 9 Nordeste 22 Norte 0 -- -- 69
2018-09-01 14:00:00 23.1 11 Norte 23 Norte 0 -- -- 69
2018-09-01 13:00:00 23.4 7 Nordeste 19 Este 0 -- -- 67
2018-09-01 12:00:00 23.2 9 Nordeste 20 Nordeste 0 -- -- 65
2018-09-01 11:00:00 19.5 5 Norte 11 Norte 0 -- -- 80
2018-09-01 10:00:00 17.9 2 Norte 14 Nordeste 0 -- -- 86
2018-09-01 09:00:00 17 0 Calma 12 Norte 0 -- -- 89
2018-09-01 08:00:00 16.3 5 Norte 10 Norte 0 -- -- 96
2018-09-01 07:00:00 16.1 3 Noroeste 7 Nordeste 0 -- -- 93
2018-09-01 06:00:00 15.9 3 Oeste 10 Nordeste 0 -- -- 92
2018-09-01 05:00:00 16 6 Norte 15 Oeste 0 -- -- 96
2018-09-01 04:00:00 16.4 6 Oeste 17 Noroeste 0 -- -- 92
2018-09-01 03:00:00 15.8 6 Norte 14 Norte 0 -- -- 96
2018-09-01 02:00:00 16.3 6 Noroeste 15 Noroeste 0 -- -- 97
2018-09-01 01:00:00 15.7 8 Noroeste 17 Noroeste 0 -- -- 94
2018-09-01 00:00:00 16.1 4 Noroeste 13 Noroeste 0 -- -- 93
2018-08-31 23:00:00 16.1 5 Noroeste 16 Noroeste 0 -- -- 90
2018-08-31 22:00:00 16.3 8 Noroeste 13 Noroeste 0 -- -- 90
2018-08-31 21:00:00 16.5 6 Noroeste 15 Norte 0 -- -- 90
2018-08-31 20:00:00 16.8 7 Noroeste 18 Noroeste 0 -- -- 87
2018-08-31 19:00:00 17.6 9 Norte 19 Noroeste 0 -- -- 87
2018-08-31 18:00:00 17.8 7 Noroeste 18 Norte 0 -- -- 86
2018-08-31 17:00:00 18.7 8 Norte 22 Norte 0 -- -- 83
2018-08-31 16:00:00 19.3 0 Calma 20 Norte 0 -- -- 78
2018-08-31 15:00:00 19.5 10 Norte 23 Noroeste 0 -- -- 76
2018-08-31 14:00:00 20.6 14 Norte 24 Norte 0 -- -- 71
2018-08-31 13:00:00 19.1 11 Norte 20 Nordeste 0 -- -- 82
2018-08-31 12:00:00 18.8 10 Norte 20 Norte 0 -- -- 79
2018-08-31 11:00:00 18.3 7 Norte 18 Noroeste 0 -- -- 80
2018-08-31 10:00:00 16.9 7 Noroeste 22 Noroeste 0 -- -- 88
2018-08-31 09:00:00 16.2 0 Calma 16 Noroeste 0 -- -- 91
2018-08-31 08:00:00 15.7 8 Noroeste 16 Noroeste 0 -- -- 92
2018-08-31 07:00:00 15.7 8 Noroeste 15 Noroeste 0 -- -- 93
2018-08-31 06:00:00 15.8 6 Noroeste 17 Noroeste 0 -- -- 93
2018-08-31 05:00:00 15.6 8 Noroeste 15 Noroeste 0 -- -- 95
2018-08-31 04:00:00 15.9 6 Noroeste 15 Noroeste 0 -- -- 95
2018-08-31 03:00:00 15.9 6 Noroeste 18 Norte 0 -- -- 96
2018-08-31 02:00:00 16.2 4 Noroeste 17 Noroeste 0 -- -- 98
2018-08-31 01:00:00 16.9 8 Noroeste 18 Oeste 0 -- -- 95
2018-08-31 00:00:00 16.6 8 Noroeste 19 Norte 0 -- -- 95
2018-08-30 23:00:00 16.2 5 Noroeste 21 Norte 0 -- -- 96
2018-08-30 22:00:00 16.7 9 Norte 23 Noroeste 0 -- -- 98
2018-08-30 21:00:00 16.9 4 Noroeste 16 Noroeste 0 -- -- 94
2018-08-30 20:00:00 17.4 9 Noroeste 21 Norte 0 -- -- 93
2018-08-30 19:00:00 18.4 8 Norte 19 Norte 0 -- -- 89
2018-08-30 18:00:00 18.9 11 Norte 23 Norte 0 -- -- 89
2018-08-30 17:00:00 19.9 0 Calma 21 Nordeste 0 -- -- 81
2018-08-30 16:00:00 20.9 10 Nordeste 19 Nordeste 0 -- -- 76
2018-08-30 15:00:00 22.1 9 Nordeste 27 Norte 0 -- -- 74
2018-08-30 14:00:00 21.5 10 Nordeste 20 Norte 0 -- -- 75
2018-08-30 13:00:00 20.3 9 Norte 19 Nordeste 0 -- -- 80
2018-08-30 12:00:00 20.6 8 Nordeste 15 Nordeste 0 -- -- 77
2018-08-30 11:00:00 18.4 9 Norte 18 Norte 0 -- -- 87
2018-08-30 10:00:00 18.1 7 Nordeste 16 Nordeste 0 -- -- 91
2018-08-30 09:00:00 16.7 0 Calma 9 Nordeste 0 -- -- 95
2018-08-30 08:00:00 15.9 5 Sudoeste 12 Noroeste 0 -- -- 98
2018-08-30 07:00:00 15.8 2 Noroeste 8 Noroeste 0 -- -- 97
2018-08-30 06:00:00 16 9 Noroeste 18 Norte 0 -- -- 97
2018-08-30 05:00:00 16.3 6 Noroeste 18 Noroeste 0 -- -- 96
2018-08-30 04:00:00 16.1 4 Noroeste 14 Nordeste 0 -- -- 96
2018-08-30 03:00:00 16.1 3 Sudeste 14 Norte 0 -- -- 95
2018-08-30 02:00:00 16.1 8 Norte 18 Nordeste 0 -- -- 98
2018-08-30 01:00:00 16.4 2 Oeste 15 Norte 0 -- -- 97
2018-08-30 00:00:00 16.6 7 Nordeste 17 Norte 0 -- -- 99
2018-08-29 23:00:00 16.8 5 Noroeste 17 Norte 0 -- -- 96
2018-08-29 22:00:00 17.1 4 Norte 15 Nordeste 0 -- -- 95
2018-08-29 21:00:00 17.1 3 Norte 20 Norte 0 -- -- 95
2018-08-29 20:00:00 17.6 10 Nordeste 18 Nordeste 0 -- -- 95
2018-08-29 19:00:00 20.1 7 Norte 19 Norte 0 -- -- 81
2018-08-29 18:00:00 20.7 10 Nordeste 20 Norte 0 -- -- 78
2018-08-29 17:00:00 21.7 12 Norte 23 Nordeste 0 -- -- 73
2018-08-29 16:00:00 22.3 12 Nordeste 20 Nordeste 0 -- -- 72
2018-08-29 15:00:00 21.3 8 Nordeste 23 Nordeste 0 -- -- 76
2018-08-29 14:00:00 19.4 12 Este 23 Nordeste 0 -- -- 95
2018-08-29 13:00:00 20.5 11 Nordeste 19 Norte 0 -- -- 78
2018-08-29 12:00:00 19.2 6 Nordeste 17 Este 0 -- -- 90
2018-08-29 11:00:00 19.4 9 Norte 18 Nordeste 0 -- -- 85
2018-08-29 10:00:00 18.2 4 Nordeste 15 Norte 0 -- -- 93
2018-08-29 09:00:00 16.9 0 Calma 17 Norte 0 -- -- 97
2018-08-29 08:00:00 16.3 3 Noroeste 12 Norte 0 -- -- 98
2018-08-29 07:00:00 16.6 5 Nordeste 12 Nordeste 0 -- -- 97
2018-08-29 06:00:00 16.2 6 Norte 16 Noroeste 0 -- -- 96
2018-08-29 05:00:00 16.3 6 Noroeste 15 Norte 0 -- -- 95
2018-08-29 04:00:00 16.3 7 Noroeste 13 Noroeste 0 -- -- 95
2018-08-29 03:00:00 15.9 5 Noroeste 13 Noroeste 0 -- -- 96
2018-08-29 02:00:00 16.3 5 Norte 19 Oeste 0 -- -- 95
2018-08-29 01:00:00 16.1 5 Noroeste 15 Noroeste 0 -- -- 96
2018-08-29 00:00:00 16.3 7 Noroeste 14 Oeste 0 -- -- 96
2018-08-28 23:00:00 15.8 4 Noroeste 13 Noroeste 0 -- -- 96
2018-08-28 22:00:00 16.5 6 Norte 20 Norte 0 -- -- 93
2018-08-28 21:00:00 16.3 4 Noroeste 12 Oeste 0 -- -- 93
2018-08-28 20:00:00 16.7 7 Noroeste 18 Norte 0 -- -- 88
2018-08-28 19:00:00 18 9 Norte 21 Norte 0 -- -- 84
2018-08-28 18:00:00 19.1 10 Norte 22 Noroeste 0 -- -- 82
2018-08-28 17:00:00 19.5 8 Norte 18 Norte 0 -- -- 80
2018-08-28 16:00:00 19.7 9 Norte 19 Norte 0 -- -- 81
2018-08-28 15:00:00 21.8 11 Norte 31 Norte 0 -- -- 74
2018-08-28 14:00:00 22.1 12 Norte 24 Norte 0 -- -- 74
2018-08-28 13:00:00 22.1 11 Norte 23 Norte 0 -- -- 71
2018-08-28 12:00:00 21.3 13 Norte 26 Nordeste 0 -- -- 71
2018-08-28 11:00:00 21.6 10 Norte 21 Norte 0 -- -- 69
2018-08-28 10:00:00 20.7 6 Norte 17 Oeste 0 -- -- 73
2018-08-28 09:00:00 18.7 6 Noroeste 19 Noroeste 0 -- -- 80
2018-08-28 08:00:00 15 6 Noroeste 16 Noroeste 0 -- -- 99
2018-08-28 07:00:00 13.9 5 Oeste 13 Sudoeste 0 -- -- 100
2018-08-28 06:00:00 14.9 7 Noroeste 15 Noroeste 0 -- -- 100
2018-08-28 05:00:00 14 5 Oeste 12 Noroeste 0 -- -- 100
2018-08-28 04:00:00 13.7 3 Oeste 12 Noroeste 0 -- -- 100
2018-08-28 03:00:00 14.1 4 Sudoeste 8 Sur 0 -- -- 100
2018-08-28 02:00:00 13.7 0 Calma 8 Sudoeste 0 -- -- 97
2018-08-28 01:00:00 13.4 5 Oeste 14 Noroeste 0 -- -- 96
2018-08-28 00:00:00 13.1 4 Sudoeste 11 Noroeste 0 -- -- 94
2018-08-27 23:00:00 14.3 7 Noroeste 12 Noroeste 0 -- -- 92
2018-08-27 22:00:00 16.4 4 Noroeste 22 Noroeste 0 -- -- 78
2018-08-27 21:00:00 17 7 Noroeste 18 Norte 0 -- -- 72
2018-08-27 20:00:00 17.7 8 Noroeste 20 Noroeste 0 -- -- 74
2018-08-27 19:00:00 21.1 12 Noroeste 22 Noroeste 0 -- -- 70
2018-08-27 18:00:00 23.1 9 Norte 23 Noroeste 0 -- -- 63
2018-08-27 17:00:00 24.1 5 Noroeste 21 Noroeste 0 -- -- 58
2018-08-27 16:00:00 23.5 11 Norte 21 Nordeste 0 -- -- 60
2018-08-27 15:00:00 23.6 9 Nordeste 19 Norte 0 -- -- 64
2018-08-27 14:00:00 23.4 8 Nordeste 22 Nordeste 0 -- -- 68
2018-08-27 13:00:00 22.7 9 Nordeste 21 Nordeste 0 -- -- 68
2018-08-27 12:00:00 21.4 5 Norte 18 Nordeste 0 -- -- 75
2018-08-27 11:00:00 21.3 8 Nordeste 20 Norte 0 -- -- 76
2018-08-27 10:00:00 22.2 7 Norte 16 Norte 0 -- -- 67
2018-08-27 09:00:00 19.9 4 Noroeste 15 Noroeste 0 -- -- 75
2018-08-27 08:00:00 15.4 4 Oeste 17 Oeste 0 -- -- 93
2018-08-27 07:00:00 14 4 Noroeste 17 Noroeste 0 -- -- 93
2018-08-27 06:00:00 14.1 3 Oeste 11 Noroeste 0 -- -- 76
2018-08-27 05:00:00 15 4 Sudoeste 12 Sudeste 0 -- -- 66
2018-08-27 04:00:00 14.5 5 Oeste 10 Oeste 0 -- -- 50
2018-08-27 03:00:00 16.6 3 Sur 18 Oeste 0 -- -- 49
2018-08-27 02:00:00 16.9 6 Oeste 14 Oeste 0 -- -- 40
2018-08-27 01:00:00 18.4 6 Noroeste 19 Noroeste 0 -- -- 40
2018-08-27 00:00:00 16.2 4 Noroeste 14 Oeste 0 -- -- 58
2018-08-26 23:00:00 15 7 Oeste 11 Oeste 0 -- -- 72
2018-08-26 22:00:00 16 5 Noroeste 17 Oeste 0 -- -- 69
2018-08-26 21:00:00 16.2 6 Noroeste 11 Noroeste 0 -- -- 54
2018-08-26 20:00:00 18.1 4 Noroeste 11 Oeste 0 -- -- 44
2018-08-26 19:00:00 25.6 4 Sudeste 14 Este 0 -- -- 42
2018-08-26 18:00:00 26.5 3 Nordeste 14 Norte 0 -- -- 42
2018-08-26 17:00:00 26.2 6 Nordeste 17 Nordeste 0 -- -- 32
2018-08-26 16:00:00 26.6 8 Norte 20 Norte 0 -- -- 32
2018-08-26 15:00:00 26.8 7 Nordeste 23 Norte 0 -- -- 28
2018-08-26 14:00:00 27.8 8 Nordeste 15 Nordeste 0 -- -- 23
2018-08-26 13:00:00 26.7 6 Norte 18 Este 0 -- -- 33
2018-08-26 12:00:00 27.2 7 Nordeste 16 Nordeste 0 -- -- 46
2018-08-26 11:00:00 26.9 5 Nordeste 12 Nordeste 0 -- -- 36
2018-08-26 10:00:00 27.7 4 Sudeste 12 Este 0 -- -- 21
2018-08-26 09:00:00 26 0 Calma 8 Oeste 0 -- -- 26
2018-08-26 08:00:00 19 0 Calma 13 Sudoeste 0 -- -- 35
2018-08-26 07:00:00 16.3 6 Sudoeste 12 Sur 0 -- -- 41
2018-08-26 06:00:00 15 4 Sudoeste 9 Sudoeste 0 -- -- 50
2018-08-26 05:00:00 16.9 5 Sur 9 Oeste 0 -- -- 43
2018-08-26 04:00:00 15.1 5 Sudoeste 7 Oeste 0 -- -- 52
2018-08-26 03:00:00 15.6 2 Sudoeste 7 Sur 0 -- -- 49
2018-08-26 02:00:00 16.6 3 Sur 9 Sur 0 -- -- 53
2018-08-26 01:00:00 20.3 6 Sudoeste 12 Sudoeste 0 -- -- 43
2018-08-26 00:00:00 20.6 6 Sudoeste 14 Sur 0 -- -- 44
2018-08-25 23:00:00 19.3 4 Sur 7 Sur 0 -- -- 56
2018-08-25 22:00:00 18.8 0 Calma 6 Oeste 0 -- -- 60
2018-08-25 21:00:00 17.6 4 Sudoeste 6 Sudoeste 0 -- -- 72
2018-08-25 20:00:00 19.8 3 Sudoeste 5 Noroeste 0 -- -- 69
2018-08-25 19:00:00 28.2 3 Norte 10 Este 0 -- -- 45
2018-08-25 18:00:00 28 5 Este 12 Nordeste 0 -- -- 53
2018-08-25 17:00:00 28.9 7 Nordeste 16 Nordeste 0 -- -- 51
2018-08-25 16:00:00 29.7 8 Este 20 Este 0 -- -- 42
2018-08-25 15:00:00 30.2 3 Este 21 Sudeste 0 -- -- 37
2018-08-25 14:00:00 29.4 12 Nordeste 23 Nordeste 0 -- -- 37
2018-08-25 13:00:00 30.2 11 Nordeste 20 Este 0 -- -- 30
2018-08-25 12:00:00 31.1 9 Nordeste 18 Este 0 -- -- 29
2018-08-25 11:00:00 31.3 8 Este 15 Este 0 -- -- 24
2018-08-25 10:00:00 30.9 5 Este 11 Este 0 -- -- 29
2018-08-25 09:00:00 28.2 0 Calma 3 Noroeste 0 -- -- 35
2018-08-25 08:00:00 18.4 3 Oeste 13 Oeste 0 -- -- 56
2018-08-25 07:00:00 17.3 8 Oeste 12 Oeste 0 -- -- 60
2018-08-25 06:00:00 17.5 8 Oeste 10 Oeste 0 -- -- 60
2018-08-25 05:00:00 17.2 4 Oeste 9 Oeste 0 -- -- 60
2018-08-25 04:00:00 17.6 3 Oeste 10 Oeste 0 -- -- 60
2018-08-25 03:00:00 18.4 5 Oeste 9 Oeste 0 -- -- 55
2018-08-25 02:00:00 18.7 3 Oeste 10 Oeste 0 -- -- 49
2018-08-25 01:00:00 18.7 6 Oeste 11 Oeste 0 -- -- 47
2018-08-25 00:00:00 17.9 5 Oeste 11 Oeste 0 -- -- 49
2018-08-24 23:00:00 18.3 6 Oeste 9 Oeste 0 -- -- 46
2018-08-24 22:00:00 17.9 4 Oeste 8 Oeste 0 -- -- 61
2018-08-24 21:00:00 18.2 4 Sudoeste 6 Sudoeste 0 -- -- 67
2018-08-24 20:00:00 20.6 6 Oeste 9 Oeste 0 -- -- 58
2018-08-24 19:00:00 27.3 5 Norte 9 Nordeste 0 -- -- 41
2018-08-24 18:00:00 29.2 6 Nordeste 15 Nordeste 0 -- -- 43
2018-08-24 17:00:00 29.5 5 Nordeste 15 Este 0 -- -- 40
2018-08-24 16:00:00 30.2 8 Nordeste 20 Nordeste 0 -- -- 37
2018-08-24 15:00:00 30 9 Nordeste 17 Nordeste 0 -- -- 32
2018-08-24 14:00:00 30.2 8 Nordeste 16 Nordeste 0 -- -- 34
2018-08-24 13:00:00 30 7 Norte 14 Nordeste 0 -- -- 33
2018-08-24 12:00:00 29.5 6 Nordeste 14 Nordeste 0 -- -- 35
2018-08-24 11:00:00 29.7 4 Nordeste 10 Nordeste 0 -- -- 34
2018-08-24 10:00:00 29.1 0 Calma 6 Este 0 -- -- 32
2018-08-24 09:00:00 28.7 4 Norte 12 Sudoeste 0 -- -- 33
2018-08-24 08:00:00 19.7 5 Sudoeste 9 Oeste 0 -- -- 43
2018-08-24 07:00:00 19.5 6 Oeste 9 Oeste 0 -- -- 45
2018-08-24 06:00:00 19 2 Oeste 10 Noroeste 0 -- -- 51
2018-08-24 05:00:00 20.2 4 Noroeste 10 Oeste 0 -- -- 45
2018-08-24 04:00:00 18.7 5 Oeste 9 Oeste 0 -- -- 51
2018-08-24 03:00:00 18.8 5 Oeste 8 Oeste 0 -- -- 55
2018-08-24 02:00:00 19.2 5 Oeste 8 Oeste 0 -- -- 51
2018-08-24 01:00:00 20 5 Noroeste 10 Oeste 0 -- -- 43
2018-08-24 00:00:00 19.9 8 Oeste 12 Oeste 0 -- -- 45
2018-08-23 23:00:00 20.2 6 Oeste 10 Oeste 0 -- -- 44
2018-08-23 22:00:00 20.9 8 Oeste 10 Noroeste 0 -- -- 41
2018-08-23 21:00:00 21.1 8 Oeste 11 Oeste 0 -- -- 43
2018-08-23 20:00:00 22.5 6 Oeste 10 Oeste 0 -- -- 43
2018-08-23 19:00:00 27.1 3 Nordeste 8 Nordeste 0 -- -- 63
2018-08-23 18:00:00 26.7 2 Nordeste 12 Nordeste 0 -- -- 67
2018-08-23 17:00:00 27.8 7 Nordeste 12 Nordeste 0 -- -- 61
2018-08-23 16:00:00 28.4 0 Calma 13 Este 0 -- -- 59
2018-08-23 15:00:00 28.5 6 Nordeste 12 Nordeste 0 -- -- 59
2018-08-23 14:00:00 29.1 9 Nordeste 15 Nordeste 0 -- -- 55
2018-08-23 13:00:00 30.3 8 Nordeste 14 Este 0 -- -- 47
2018-08-23 12:00:00 32.1 7 Este 13 Este 0 -- -- 33
2018-08-23 11:00:00 32.4 6 Este 13 Este 0 -- -- 26
2018-08-23 10:00:00 32.1 5 Este 10 Este 0 -- -- 23
2018-08-23 09:00:00 28.8 0 Calma 6 Sur 0 -- -- 29
2018-08-23 08:00:00 19.3 3 Sudoeste 7 Sudoeste 0 -- -- 55
2018-08-23 07:00:00 18.8 5 Sudoeste 8 Sudoeste 0 -- -- 59
2018-08-23 06:00:00 18.6 4 Sur 6 Sudoeste 0 -- -- 63
2018-08-23 05:00:00 18.3 4 Sudoeste 7 Sudoeste 0 -- -- 56
2018-08-23 04:00:00 18.7 3 Sudeste 10 Sudeste 0 -- -- 54
2018-08-23 03:00:00 19.5 5 Sur 8 Sudoeste 0 -- -- 54
2018-08-23 02:00:00 18.1 5 Sudoeste 7 Sudoeste 0 -- -- 49
2018-08-23 01:00:00 18.3 4 Oeste 8 Oeste 0 -- -- 48
2018-08-23 00:00:00 17.8 3 Noroeste 8 Oeste 0 -- -- 59